createdAt,value
2018-07-23T00:02:13.654Z,64.10
2018-07-23T00:07:19.630Z,65.10
2018-07-23T00:09:52.464Z,65.10
2018-07-23T00:12:25.338Z,65.20
2018-07-23T00:14:57.901Z,65.50
2018-07-23T00:17:30.476Z,65.50
2018-07-23T00:20:02.988Z,65.40
2018-07-23T00:22:35.597Z,65.20
2018-07-23T00:25:08.205Z,65.00
2018-07-23T00:27:40.887Z,65.20
2018-07-23T00:30:15.497Z,65.20
2018-07-23T00:32:48.006Z,65.60
2018-07-23T00:35:20.383Z,65.60
2018-07-23T00:37:52.974Z,66.10
2018-07-23T00:40:25.500Z,66.20
2018-07-23T00:42:58.039Z,66.00
2018-07-23T00:45:30.668Z,65.90
2018-07-23T00:48:03.037Z,65.80
2018-07-23T00:50:35.706Z,65.80
2018-07-23T00:53:08.223Z,65.60
2018-07-23T00:55:40.699Z,65.50
2018-07-23T00:58:13.174Z,65.60
2018-07-23T01:00:45.971Z,65.50
2018-07-23T01:03:18.692Z,65.20
2018-07-23T01:05:51.442Z,64.90
2018-07-23T01:08:23.852Z,64.90
2018-07-23T01:10:56.306Z,64.70
2018-07-23T01:13:29.223Z,64.80
2018-07-23T01:16:01.953Z,65.60
2018-07-23T01:18:34.425Z,66.30
2018-07-23T01:21:07.249Z,67.60
2018-07-23T01:23:40.309Z,67.50
2018-07-23T01:26:13.680Z,68.10
2018-07-23T01:28:47.165Z,68.30
2018-07-23T01:31:20.045Z,68.70
2018-07-23T01:33:52.857Z,69.10
2018-07-23T01:36:25.744Z,69.30
2018-07-23T01:38:58.538Z,69.60
2018-07-23T01:41:32.512Z,70.30
2018-07-23T01:44:05.432Z,70.70
2018-07-23T01:46:38.167Z,71.00
2018-07-23T01:49:10.952Z,71.70
2018-07-23T01:51:43.650Z,72.10
2018-07-23T01:54:16.165Z,72.50
2018-07-23T01:56:49.261Z,73.30
2018-07-23T01:59:21.839Z,74.10
2018-07-23T02:01:54.575Z,74.20
2018-07-23T02:04:27.233Z,74.80
2018-07-23T02:06:59.773Z,74.80
2018-07-23T02:09:32.400Z,75.60
2018-07-23T02:12:05.358Z,76.30
2018-07-23T02:14:37.935Z,76.70
2018-07-23T02:17:10.593Z,77.20
2018-07-23T02:19:43.107Z,78.50
2018-07-23T02:22:15.641Z,78.10
2018-07-23T02:24:48.179Z,78.80
2018-07-23T02:27:20.539Z,79.20
2018-07-23T02:29:53.189Z,79.40
2018-07-23T02:32:25.832Z,79.40
2018-07-23T02:34:58.492Z,79.60
2018-07-23T02:37:31.057Z,80.00
2018-07-23T02:40:03.700Z,79.90
2018-07-23T02:42:36.409Z,80.20
2018-07-23T02:45:09.062Z,80.10
2018-07-23T02:47:41.709Z,80.10
2018-07-23T02:50:14.374Z,79.80
2018-07-23T02:52:46.792Z,79.80
2018-07-23T02:55:19.321Z,79.70
2018-07-23T02:57:52.232Z,79.80
2018-07-23T03:00:25.535Z,80.30
2018-07-23T03:02:58.262Z,80.00
2018-07-23T03:05:30.906Z,80.00
2018-07-23T03:08:03.466Z,80.70
2018-07-23T03:10:36.027Z,80.60
2018-07-23T03:13:08.806Z,80.80
2018-07-23T03:15:41.342Z,81.50
2018-07-23T03:18:13.899Z,81.30
2018-07-23T03:20:46.601Z,81.60
2018-07-23T03:23:19.161Z,81.70
2018-07-23T03:25:51.710Z,82.20
2018-07-23T03:28:24.291Z,81.10
2018-07-23T03:30:56.933Z,81.10
2018-07-23T03:33:30.891Z,81.00
2018-07-23T03:36:03.870Z,80.70
2018-07-23T03:38:36.445Z,80.80
2018-07-23T03:41:09.091Z,81.00
2018-07-23T03:43:41.802Z,81.00
2018-07-23T03:46:15.240Z,80.90
2018-07-23T03:48:48.116Z,81.10
2018-07-23T03:51:21.553Z,81.00
2018-07-23T03:53:54.276Z,81.00
2018-07-23T03:56:26.750Z,81.00
2018-07-23T03:59:12.382Z,81.00
2018-07-23T04:01:53.433Z,80.90
2018-07-23T04:04:52.056Z,81.20
2018-07-23T04:07:34.870Z,81.40
2018-07-23T04:10:19.548Z,81.80
2018-07-23T04:13:02.847Z,82.40
2018-07-23T04:15:36.286Z,82.30
2018-07-23T04:18:08.997Z,82.50
2018-07-23T04:20:46.136Z,82.50
2018-07-23T04:23:25.715Z,82.50
2018-07-23T04:25:58.686Z,82.50
2018-07-23T04:28:31.165Z,82.80
2018-07-23T04:31:03.833Z,83.30
2018-07-23T04:33:36.191Z,83.80
2018-07-23T04:36:09.068Z,84.40
2018-07-23T04:41:12.754Z,84.10
2018-07-23T04:43:45.407Z,84.30
2018-07-23T04:46:18.706Z,84.60
2018-07-23T04:48:51.387Z,84.70
2018-07-23T04:51:24.034Z,84.80
2018-07-23T04:53:57.018Z,84.80
2018-07-23T04:56:30.466Z,85.10
2018-07-23T04:59:03.070Z,86.00
2018-07-23T05:01:35.829Z,86.20
2018-07-23T05:04:08.625Z,87.10
2018-07-23T05:06:50.295Z,86.80
2018-07-23T05:09:22.804Z,87.50
2018-07-23T05:11:55.345Z,88.80
2018-07-23T05:14:27.777Z,88.30
2018-07-23T05:17:00.338Z,89.00
2018-07-23T05:19:35.376Z,89.60
2018-07-23T05:22:08.029Z,90.00
2018-07-23T05:24:45.049Z,89.60
2018-07-23T05:27:19.727Z,90.00
2018-07-23T05:29:59.544Z,90.10
2018-07-23T05:32:41.775Z,90.60
2018-07-23T05:35:23.175Z,90.30
2018-07-23T05:37:55.894Z,90.50
2018-07-23T05:40:28.492Z,90.60
2018-07-23T05:43:00.984Z,90.60
2018-07-23T05:45:33.615Z,90.80
2018-07-23T05:48:06.361Z,91.00
2018-07-23T05:50:39.040Z,90.80
2018-07-23T05:53:11.873Z,91.70
2018-07-23T05:55:44.458Z,91.30
2018-07-23T05:58:16.981Z,91.30
2018-07-23T06:00:49.408Z,91.30
2018-07-23T06:03:21.947Z,91.40
2018-07-23T06:05:54.580Z,91.40
2018-07-23T06:08:27.022Z,91.30
2018-07-23T06:10:59.516Z,91.20
2018-07-23T06:13:34.946Z,91.30
2018-07-23T06:16:07.986Z,91.30
2018-07-23T06:18:40.435Z,91.70
2018-07-23T06:21:13.384Z,91.60
2018-07-23T06:23:46.271Z,91.70
2018-07-23T06:26:19.013Z,91.70
2018-07-23T06:28:51.479Z,91.90
2018-07-23T06:31:24.009Z,91.90
2018-07-23T06:33:56.464Z,91.90
2018-07-23T06:36:29.101Z,91.90
2018-07-23T06:39:01.669Z,92.00
2018-07-23T06:41:35.835Z,92.10
2018-07-23T06:44:08.686Z,92.30
2018-07-23T06:46:41.655Z,92.20
2018-07-23T06:49:14.340Z,92.40
2018-07-23T06:51:46.958Z,92.40
2018-07-23T06:54:19.727Z,92.70
2018-07-23T06:56:52.316Z,92.70
2018-07-23T06:59:25.210Z,93.00
2018-07-23T07:01:57.852Z,92.70
2018-07-23T07:04:30.342Z,92.70
2018-07-23T07:07:02.780Z,92.50
2018-07-23T07:09:35.456Z,92.50
2018-07-23T07:12:08.055Z,92.80
2018-07-23T07:14:40.538Z,93.00
2018-07-23T07:17:13.104Z,93.30
2018-07-23T07:19:45.788Z,93.40
2018-07-23T07:22:18.908Z,93.50
2018-07-23T07:24:51.642Z,93.40
2018-07-23T07:27:24.226Z,93.50
2018-07-23T07:29:56.814Z,93.40
2018-07-23T07:32:29.352Z,93.60
2018-07-23T07:35:02.043Z,93.60
2018-07-23T07:37:34.570Z,93.60
2018-07-23T07:40:07.337Z,93.60
2018-07-23T07:42:39.977Z,93.70
2018-07-23T07:45:12.544Z,94.10
2018-07-23T07:47:44.950Z,93.90
2018-07-23T07:50:17.680Z,93.70
2018-07-23T07:52:50.511Z,93.80
2018-07-23T07:55:22.994Z,93.80
2018-07-23T07:57:55.992Z,94.20
2018-07-23T08:00:28.557Z,94.00
2018-07-23T08:03:03.917Z,94.00
2018-07-23T08:05:36.830Z,94.20
2018-07-23T08:08:10.274Z,94.00
2018-07-23T08:10:43.824Z,93.90
2018-07-23T08:13:17.047Z,93.80
2018-07-23T08:15:49.585Z,93.70
2018-07-23T08:18:22.353Z,93.60
2018-07-23T08:20:55.385Z,93.80
2018-07-23T08:23:27.820Z,93.90
2018-07-23T08:26:00.285Z,93.90
2018-07-23T08:28:33.308Z,93.90
2018-07-23T08:31:17.495Z,93.90
2018-07-23T08:34:04.949Z,93.60
2018-07-23T08:36:49.751Z,93.60
2018-07-23T08:39:32.683Z,93.60
2018-07-23T08:42:06.075Z,93.60
2018-07-23T08:44:38.654Z,93.70
2018-07-23T08:47:11.528Z,93.70
2018-07-23T08:49:44.274Z,93.70
2018-07-23T08:52:16.866Z,93.70
2018-07-23T08:54:50.154Z,93.60
2018-07-23T08:57:23.951Z,93.60
2018-07-23T08:59:56.515Z,93.90
2018-07-23T09:05:00.812Z,93.50
2018-07-23T09:07:33.372Z,93.60
2018-07-23T09:10:05.734Z,93.50
2018-07-23T09:12:38.760Z,93.40
2018-07-23T09:15:16.187Z,93.30
2018-07-23T09:17:49.955Z,93.40
2018-07-23T09:20:27.969Z,93.40
2018-07-23T09:23:04.819Z,93.30
2018-07-23T09:25:45.737Z,93.30
2018-07-23T09:28:19.214Z,93.30
2018-07-23T09:30:53.925Z,93.40
2018-07-23T09:33:27.021Z,93.40
2018-07-23T09:35:59.834Z,93.40
2018-07-23T09:38:32.231Z,93.40
2018-07-23T09:41:04.931Z,93.40
2018-07-23T09:43:37.444Z,93.40
2018-07-23T09:46:11.124Z,93.50
2018-07-23T09:48:43.710Z,93.50
2018-07-23T09:51:16.420Z,93.40
2018-07-23T09:53:49.138Z,93.30
2018-07-23T09:56:21.926Z,93.20
2018-07-23T09:58:54.935Z,93.10
2018-07-23T10:01:27.845Z,93.20
2018-07-23T10:04:00.356Z,93.20
2018-07-23T10:06:32.967Z,93.20
2018-07-23T10:09:06.118Z,93.20
2018-07-23T10:14:11.857Z,93.20
2018-07-23T10:16:44.700Z,93.30
2018-07-23T10:19:17.347Z,93.50
2018-07-23T10:21:50.213Z,93.60
2018-07-23T10:24:23.483Z,93.80
2018-07-23T10:26:56.088Z,93.60
2018-07-23T10:29:28.773Z,93.60
2018-07-23T10:32:01.473Z,93.60
2018-07-23T10:34:34.745Z,93.60
2018-07-23T10:37:07.708Z,93.40
2018-07-23T10:39:40.497Z,93.50
2018-07-23T10:42:13.160Z,93.50
2018-07-23T10:44:46.006Z,93.50
2018-07-23T10:47:19.222Z,93.50
2018-07-23T10:49:51.907Z,93.50
2018-07-23T10:52:24.418Z,93.40
2018-07-23T10:54:57.039Z,93.40
2018-07-23T10:57:29.946Z,93.30
2018-07-23T11:00:02.674Z,93.50
2018-07-23T11:02:36.226Z,93.00
2018-07-23T11:05:10.220Z,92.90
2018-07-23T11:07:44.051Z,92.80
2018-07-23T11:10:16.758Z,92.70
2018-07-23T11:12:49.887Z,92.50
2018-07-23T11:15:22.790Z,92.50
2018-07-23T11:17:55.259Z,92.50
2018-07-23T11:22:59.381Z,92.20
2018-07-23T11:25:40.414Z,92.50
2018-07-23T11:28:05.767Z,92.20
2018-07-23T11:30:39.687Z,92.20
2018-07-23T11:33:12.413Z,92.50
2018-07-23T11:35:45.511Z,92.40
2018-07-23T11:38:18.286Z,92.60
2018-07-23T11:40:51.436Z,92.70
2018-07-23T11:43:24.181Z,92.60
2018-07-23T11:45:56.845Z,92.70
2018-07-23T11:48:29.673Z,92.80
2018-07-23T11:51:02.467Z,92.80
2018-07-23T11:53:35.708Z,92.90
2018-07-23T11:56:08.303Z,92.80
2018-07-23T11:58:40.929Z,92.90
2018-07-23T12:01:13.353Z,93.30
2018-07-23T12:03:46.351Z,92.90
2018-07-23T12:06:18.875Z,92.80
2018-07-23T12:08:51.637Z,92.90
2018-07-23T12:11:24.276Z,92.70
2018-07-23T12:13:57.638Z,92.60
2018-07-23T12:16:30.359Z,92.60
2018-07-23T12:19:30.087Z,92.60
2018-07-23T12:22:02.729Z,92.50
2018-07-23T12:24:35.036Z,92.30
2018-07-23T12:27:07.497Z,92.40
2018-07-23T12:29:40.102Z,92.60
2018-07-23T12:32:25.737Z,92.50
2018-07-23T12:34:58.311Z,92.50
2018-07-23T12:37:31.698Z,92.30
2018-07-23T12:40:04.259Z,92.30
2018-07-23T12:42:36.849Z,92.30
2018-07-23T12:45:09.532Z,92.50
2018-07-23T12:47:42.102Z,92.60
2018-07-23T12:50:14.863Z,92.70
2018-07-23T12:52:47.751Z,92.50
2018-07-23T12:55:20.314Z,92.50
2018-07-23T12:57:53.168Z,92.30
2018-07-23T13:00:27.120Z,92.20
2018-07-23T13:08:18.460Z,91.50
2018-07-23T13:10:53.464Z,91.40
2018-07-23T13:13:35.089Z,91.30
2018-07-23T13:18:51.382Z,91.00
2018-07-23T13:21:23.879Z,90.50
2018-07-23T13:23:57.766Z,90.70
2018-07-23T13:26:31.760Z,90.60
2018-07-23T13:29:04.351Z,90.60
2018-07-23T13:31:37.523Z,90.50
2018-07-23T13:34:10.765Z,90.60
2018-07-23T13:36:43.587Z,90.40
2018-07-23T13:39:16.281Z,90.30
2018-07-23T13:41:49.299Z,89.20
2018-07-23T13:44:21.907Z,89.40
2018-07-23T13:46:54.556Z,88.30
2018-07-23T13:49:27.216Z,88.30
2018-07-23T13:51:59.974Z,87.00
2018-07-23T13:54:32.763Z,86.90
2018-07-23T13:57:05.577Z,86.00
2018-07-23T13:59:38.372Z,85.00
2018-07-23T14:02:15.727Z,84.40
2018-07-23T14:04:54.236Z,84.30
2018-07-23T14:07:26.814Z,82.30
2018-07-23T14:09:59.423Z,81.70
2018-07-23T14:12:34.677Z,81.00
2018-07-23T14:15:08.311Z,80.30
2018-07-23T14:17:40.903Z,80.60
2018-07-23T14:20:13.650Z,79.70
2018-07-23T14:22:48.420Z,79.20
2018-07-23T14:25:21.317Z,79.90
2018-07-23T14:27:59.348Z,78.40
2018-07-23T14:30:32.019Z,77.80
2018-07-23T14:33:04.710Z,77.80
2018-07-23T14:35:37.901Z,77.20
2018-07-23T14:38:10.597Z,76.40
2018-07-23T14:40:43.197Z,74.90
2018-07-23T14:43:15.679Z,75.20
2018-07-23T14:45:48.154Z,73.90
2018-07-23T14:48:26.254Z,73.30
2018-07-23T14:50:59.940Z,73.10
2018-07-23T14:56:04.525Z,72.60
2018-07-23T14:58:37.971Z,71.30
2018-07-23T15:01:21.158Z,71.70
2018-07-23T15:03:53.803Z,71.70
2018-07-23T15:06:29.687Z,71.30
2018-07-23T15:09:02.323Z,70.50
2018-07-23T15:11:36.281Z,70.30
2018-07-23T15:14:16.341Z,70.30
2018-07-23T15:16:51.787Z,69.00
2018-07-23T15:19:30.074Z,67.80
2018-07-23T15:22:05.678Z,67.10
2018-07-23T15:24:41.982Z,66.50
2018-07-23T15:29:47.363Z,63.70
2018-07-23T15:32:23.851Z,63.60
2018-07-23T15:34:57.951Z,63.50
2018-07-23T15:37:34.729Z,62.60
2018-07-23T15:40:14.927Z,61.10
2018-07-23T15:42:51.682Z,61.50
2018-07-23T15:45:25.882Z,61.30
2018-07-23T15:47:59.739Z,60.90
2018-07-23T15:50:33.932Z,59.40
2018-07-23T15:53:07.066Z,60.50
2018-07-23T15:55:41.247Z,60.70
2018-07-23T16:00:46.875Z,60.60
2018-07-23T16:03:20.200Z,58.70
2018-07-23T16:05:55.157Z,58.60
2018-07-23T16:08:27.872Z,58.90
2018-07-23T16:11:02.175Z,58.20
2018-07-23T16:13:36.313Z,58.40
2018-07-23T16:16:11.529Z,58.10
2018-07-23T16:18:45.585Z,57.80
2018-07-23T16:21:18.210Z,56.90
2018-07-23T16:24:02.920Z,56.30
2018-07-23T16:26:36.257Z,56.60
2018-07-23T16:29:09.284Z,55.40
2018-07-23T16:31:43.472Z,55.90
2018-07-23T16:34:16.250Z,55.50
2018-07-23T16:36:49.187Z,55.70
2018-07-23T16:39:22.069Z,56.30
2018-07-23T16:41:54.704Z,55.50
2018-07-23T16:44:27.538Z,54.60
2018-07-23T16:47:02.324Z,55.20
2018-07-23T16:49:35.044Z,54.40
2018-07-23T16:52:10.216Z,54.20
2018-07-23T16:54:46.183Z,54.20
2018-07-23T16:57:19.310Z,54.00
2018-07-23T16:59:52.532Z,53.60
2018-07-23T17:02:30.354Z,53.00
2018-07-23T17:05:03.200Z,53.00
2018-07-23T17:07:36.093Z,52.60
2018-07-23T17:10:09.119Z,53.00
2018-07-23T17:12:41.732Z,53.30
2018-07-23T17:15:14.333Z,52.50
2018-07-23T17:17:46.929Z,52.50
2018-07-23T17:20:20.899Z,51.60
2018-07-23T17:22:54.236Z,51.40
2018-07-23T17:25:30.915Z,51.20
2018-07-23T17:28:04.057Z,51.30
2018-07-23T17:30:44.075Z,51.40
2018-07-23T17:33:23.969Z,50.80
2018-07-23T17:36:04.663Z,50.20
2018-07-23T17:38:37.631Z,49.00
2018-07-23T17:41:12.276Z,47.90
2018-07-23T17:43:45.518Z,47.60
2018-07-23T17:46:22.722Z,47.20
2018-07-23T17:49:05.619Z,47.00
2018-07-23T17:51:41.244Z,46.30
2018-07-23T17:54:22.287Z,45.20
2018-07-23T17:56:56.322Z,43.80
2018-07-23T17:59:29.224Z,43.50
2018-07-23T18:02:01.909Z,43.10
2018-07-23T18:04:39.266Z,43.20
2018-07-23T18:07:12.687Z,44.40
2018-07-23T18:09:45.907Z,44.40
2018-07-23T18:12:19.241Z,43.30
2018-07-23T18:14:55.296Z,42.80
2018-07-23T18:17:28.410Z,42.00
2018-07-23T18:20:01.118Z,41.70
2018-07-23T18:22:34.472Z,42.20
2018-07-23T18:25:07.141Z,42.10
2018-07-23T18:27:39.734Z,42.10
2018-07-23T18:30:14.731Z,42.40
2018-07-23T18:32:48.993Z,42.10
2018-07-23T18:35:21.958Z,42.10
2018-07-23T18:37:54.545Z,42.20
2018-07-23T18:40:27.370Z,41.80
2018-07-23T18:42:59.858Z,42.60
2018-07-23T18:45:32.890Z,42.30
2018-07-23T18:48:11.026Z,42.40
2018-07-23T18:50:43.536Z,42.30
2018-07-23T18:53:24.919Z,42.50
2018-07-23T18:55:58.711Z,41.50
2018-07-23T18:58:33.821Z,41.30
2018-07-23T19:01:09.463Z,41.20
2018-07-23T19:03:44.143Z,40.80
2018-07-23T19:08:48.259Z,41.70
2018-07-23T19:11:23.382Z,41.60
2018-07-23T19:13:58.104Z,41.90
2018-07-23T19:16:32.972Z,42.00
2018-07-23T19:19:05.664Z,42.80
2018-07-23T19:21:46.073Z,42.70
2018-07-23T20:40:55.400Z,43.20
2018-07-23T20:43:29.459Z,38.50
2018-07-23T20:46:03.082Z,39.10
2018-07-23T20:48:35.565Z,39.10
2018-07-23T20:51:10.310Z,39.70
2018-07-23T20:53:44.491Z,39.00
2018-07-23T20:56:19.266Z,39.50
2018-07-23T20:58:55.164Z,39.70
2018-07-23T21:01:39.940Z,40.00
2018-07-23T21:04:25.020Z,40.80
2018-07-23T21:09:38.276Z,39.70
2018-07-23T21:12:14.987Z,40.10
2018-07-23T21:14:50.601Z,39.50
2018-07-23T21:17:25.704Z,40.20
2018-07-23T21:20:01.566Z,41.30
2018-07-23T21:22:34.469Z,41.50
2018-07-23T21:25:07.199Z,40.60
2018-07-23T21:27:39.896Z,40.70
2018-07-23T21:30:12.610Z,40.60
2018-07-23T21:32:46.793Z,41.20
2018-07-23T21:35:21.746Z,41.40
2018-07-23T21:37:54.529Z,41.90
2018-07-23T21:40:27.667Z,42.50
2018-07-23T21:43:00.312Z,42.90
2018-07-23T21:45:37.147Z,42.60
2018-07-23T21:48:09.782Z,42.30
2018-07-23T21:50:42.415Z,42.50
2018-07-23T21:53:15.045Z,42.50
2018-07-23T21:55:47.893Z,42.90
2018-07-23T21:58:29.995Z,43.30
2018-07-23T22:01:08.500Z,43.20
2018-07-23T22:03:50.212Z,43.40
2018-07-23T22:06:31.242Z,43.60
2018-07-23T22:09:11.897Z,43.00
2018-07-23T22:24:55.197Z,42.60
2018-07-23T22:27:36.720Z,42.00
2018-07-23T22:30:18.348Z,38.50
2018-07-23T22:33:00.582Z,38.40
2018-07-23T22:35:45.186Z,38.00
2018-07-23T22:38:24.204Z,38.70
2018-07-23T22:40:59.459Z,38.90
2018-07-23T22:43:39.958Z,39.00
2018-07-23T22:46:20.472Z,39.20
2018-07-23T22:48:56.634Z,39.50
2018-07-23T22:51:36.740Z,39.50
2018-07-23T22:54:17.221Z,39.70
2018-07-23T22:56:56.863Z,39.90
2018-07-23T22:59:37.911Z,39.70
2018-07-23T23:02:14.022Z,39.60
2018-07-23T23:04:54.911Z,39.70
2018-07-23T23:07:35.961Z,39.60
2018-07-23T23:10:16.471Z,39.70
2018-07-23T23:12:56.741Z,39.90
2018-07-23T23:15:41.236Z,40.40
2018-07-23T23:18:18.607Z,39.90
2018-07-23T23:21:00.679Z,40.30
2018-07-23T23:23:40.062Z,41.00
2018-07-23T23:26:18.998Z,40.90
2018-07-23T23:28:58.398Z,41.10
2018-07-23T23:31:32.444Z,41.50
2018-07-23T23:34:13.702Z,40.00
2018-07-23T23:36:55.148Z,39.10
2018-07-23T23:39:36.006Z,38.70
2018-07-23T23:42:17.107Z,39.10
2018-07-23T23:44:57.186Z,39.50
2018-07-23T23:47:36.482Z,39.80
2018-07-23T23:50:16.829Z,40.10
2018-07-23T23:52:56.564Z,40.30
2018-07-23T23:55:36.321Z,40.20
2018-07-23T23:58:16.276Z,40.30
